createdAt,value
2023-01-05T00:01:41.941Z,20.58
2023-01-05T00:04:08.894Z,31.00
2023-01-05T00:06:37.153Z,28.85
2023-01-05T00:09:04.467Z,26.75
2023-01-05T00:11:49.872Z,28.88
2023-01-05T00:14:41.370Z,29.27
2023-01-05T00:17:30.377Z,29.85
2023-01-05T00:20:15.905Z,30.10
2023-01-05T00:22:45.916Z,29.27
2023-01-05T00:25:15.177Z,23.50
2023-01-05T00:27:43.584Z,25.10
2023-01-05T00:30:13.119Z,26.73
2023-01-05T00:32:41.251Z,26.35
2023-01-05T00:35:08.507Z,24.60
2023-01-05T00:37:36.486Z,26.42
2023-01-05T00:40:03.715Z,26.23
2023-01-05T00:42:30.811Z,29.88
2023-01-05T00:44:57.542Z,31.17
2023-01-05T00:47:24.232Z,29.52
2023-01-05T00:49:50.897Z,26.10
2023-01-05T00:52:17.642Z,26.25
2023-01-05T00:54:44.249Z,27.25
2023-01-05T00:57:12.289Z,22.40
2023-01-05T00:59:39.604Z,32.13
2023-01-05T01:02:06.799Z,28.45
2023-01-05T01:04:34.644Z,25.27
2023-01-05T01:07:01.811Z,20.77
2023-01-05T01:09:29.022Z,23.15
2023-01-05T01:11:55.867Z,29.00
2023-01-05T01:14:23.043Z,35.95
2023-01-05T01:16:50.084Z,31.50
2023-01-05T01:19:20.089Z,33.15
2023-01-05T01:21:48.320Z,23.73
2023-01-05T01:24:20.254Z,30.38
2023-01-05T01:26:47.563Z,25.45
2023-01-05T01:29:14.267Z,33.42
2023-01-05T01:31:40.873Z,31.17
2023-01-05T01:34:07.542Z,32.72
2023-01-05T01:36:34.279Z,32.47
2023-01-05T01:39:01.285Z,25.33
2023-01-05T01:41:32.791Z,26.52
2023-01-05T01:43:59.811Z,25.20
2023-01-05T01:46:28.456Z,24.30
2023-01-05T01:49:00.146Z,33.90
2023-01-05T01:51:32.201Z,31.45
2023-01-05T01:54:01.418Z,31.65
2023-01-05T01:56:35.926Z,31.48
2023-01-05T01:59:02.775Z,25.58
2023-01-05T02:01:30.278Z,27.17
2023-01-05T02:03:57.289Z,29.58
2023-01-05T02:06:23.997Z,37.33
2023-01-05T02:08:50.883Z,26.00
2023-01-05T02:11:36.038Z,32.97
2023-01-05T02:14:14.143Z,26.95
2023-01-05T02:16:55.958Z,34.05
2023-01-05T02:19:37.588Z,35.00
2023-01-05T02:22:40.834Z,27.73
2023-01-05T02:25:25.624Z,35.92
2023-01-05T02:28:13.644Z,28.88
2023-01-05T02:31:13.706Z,37.08
2023-01-05T02:33:55.835Z,28.63
2023-01-05T02:37:09.299Z,27.85
2023-01-05T02:40:13.142Z,36.30
2023-01-05T02:42:42.335Z,35.95
2023-01-05T02:45:09.425Z,31.75
2023-01-05T02:47:43.660Z,31.77
2023-01-05T02:50:31.682Z,34.70
2023-01-05T02:53:13.490Z,31.27
2023-01-05T02:56:12.377Z,39.22
2023-01-05T02:58:46.301Z,25.45
2023-01-05T03:01:21.628Z,24.92
2023-01-05T03:03:58.232Z,25.30
2023-01-05T03:06:28.045Z,28.15
2023-01-05T03:09:00.266Z,36.25
2023-01-05T03:11:56.592Z,30.25
2023-01-05T03:14:32.216Z,36.03
2023-01-05T03:17:02.362Z,29.52
2023-01-05T03:19:36.466Z,29.45
2023-01-05T03:22:30.920Z,36.40
2023-01-05T03:25:17.273Z,33.53
2023-01-05T03:28:05.645Z,20.50
2023-01-05T03:31:16.974Z,36.33
2023-01-05T03:34:08.371Z,32.47
2023-01-05T03:36:44.641Z,42.30
2023-01-05T03:39:12.775Z,34.67
2023-01-05T03:41:40.046Z,33.17
2023-01-05T03:44:08.551Z,25.05
2023-01-05T03:46:41.269Z,28.20
2023-01-05T03:49:09.483Z,29.83
2023-01-05T03:51:41.694Z,34.65
2023-01-05T03:54:10.115Z,28.00
2023-01-05T03:56:38.382Z,30.95
2023-01-05T03:59:05.899Z,36.35
2023-01-05T04:01:33.137Z,27.90
2023-01-05T04:04:00.864Z,30.95
2023-01-05T04:06:28.191Z,31.27
2023-01-05T04:08:54.955Z,36.78
2023-01-05T04:11:23.966Z,32.83
2023-01-05T04:14:00.607Z,34.00
2023-01-05T04:16:28.679Z,30.35
2023-01-05T04:18:58.429Z,32.03
2023-01-05T04:21:25.819Z,36.17
2023-01-05T04:23:55.151Z,29.02
2023-01-05T04:26:22.953Z,37.17
2023-01-05T04:28:50.921Z,31.13
2023-01-05T04:31:20.619Z,25.58
2023-01-05T04:33:48.785Z,27.42
2023-01-05T04:36:19.106Z,30.63
2023-01-05T04:38:45.831Z,32.78
2023-01-05T04:41:13.575Z,34.67
2023-01-05T04:43:42.607Z,23.27
2023-01-05T04:46:09.682Z,32.80
2023-01-05T04:48:37.731Z,35.28
2023-01-05T04:51:05.249Z,27.63
2023-01-05T04:53:35.375Z,27.00
2023-01-05T04:56:04.250Z,30.45
2023-01-05T04:58:36.156Z,35.78
2023-01-05T05:01:02.950Z,31.90
2023-01-05T05:03:33.375Z,31.40
2023-01-05T05:06:01.448Z,33.22
2023-01-05T05:08:29.390Z,39.03
2023-01-05T05:10:56.689Z,41.08
2023-01-05T05:13:23.828Z,31.88
2023-01-05T05:15:52.912Z,27.25
2023-01-05T05:18:21.227Z,30.75
2023-01-05T05:20:52.243Z,36.35
2023-01-05T05:23:23.410Z,35.40
2023-01-05T05:25:51.195Z,27.58
2023-01-05T05:28:20.323Z,32.20
2023-01-05T05:30:49.066Z,39.70
2023-01-05T05:33:15.716Z,33.08
2023-01-05T05:35:42.358Z,34.50
2023-01-05T05:38:09.006Z,30.92
2023-01-05T05:40:35.712Z,33.45
2023-01-05T05:43:02.334Z,35.72
2023-01-05T05:45:28.960Z,32.05
2023-01-05T05:47:55.692Z,40.65
2023-01-05T05:50:22.372Z,35.90
2023-01-05T05:52:49.381Z,38.97
2023-01-05T05:55:16.131Z,40.42
2023-01-05T05:57:42.714Z,36.15
2023-01-05T06:00:09.953Z,29.63
2023-01-05T06:02:39.983Z,41.47
2023-01-05T06:05:07.181Z,34.22
2023-01-05T06:07:33.857Z,36.47
2023-01-05T06:10:00.509Z,29.40
2023-01-05T06:12:27.349Z,39.30
2023-01-05T06:14:54.141Z,36.33
2023-01-05T06:17:20.788Z,31.95
2023-01-05T06:19:47.632Z,25.85
2023-01-05T06:22:14.303Z,42.15
2023-01-05T06:24:40.925Z,39.55
2023-01-05T06:27:07.686Z,39.50
2023-01-05T06:29:34.342Z,33.97
2023-01-05T06:32:00.954Z,38.03
2023-01-05T06:34:27.631Z,45.28
2023-01-05T06:37:01.901Z,42.13
2023-01-05T06:39:29.084Z,43.00
2023-01-05T06:41:55.746Z,25.35
2023-01-05T06:44:22.381Z,32.72
2023-01-05T06:46:48.981Z,38.92
2023-01-05T06:49:15.640Z,33.22
2023-01-05T06:51:42.272Z,41.47
2023-01-05T06:54:40.440Z,34.80
2023-01-05T06:57:08.017Z,36.50
2023-01-05T07:00:04.677Z,28.15
2023-01-05T07:02:33.306Z,34.72
2023-01-05T07:04:59.973Z,37.63
2023-01-05T07:07:26.616Z,37.70
2023-01-05T07:09:53.318Z,43.60
2023-01-05T07:12:20.265Z,39.40
2023-01-05T07:14:46.951Z,35.58
2023-01-05T07:17:13.762Z,41.10
2023-01-05T07:19:40.426Z,46.42
2023-01-05T07:22:07.352Z,41.72
2023-01-05T07:24:34.066Z,42.97
2023-01-05T07:27:04.488Z,37.60
2023-01-05T07:29:36.033Z,37.65
2023-01-05T07:32:02.800Z,48.05
2023-01-05T07:34:29.555Z,32.97
2023-01-05T07:36:56.244Z,31.05
2023-01-05T07:39:22.895Z,38.33
2023-01-05T07:41:49.649Z,39.78
2023-01-05T07:44:18.277Z,50.63
2023-01-05T07:46:45.142Z,28.00
2023-01-05T07:49:11.762Z,39.08
2023-01-05T07:51:38.508Z,45.17
2023-01-05T07:54:05.235Z,34.17
2023-01-05T07:56:31.899Z,41.97
2023-01-05T07:58:59.449Z,32.33
2023-01-05T08:01:26.238Z,34.85
2023-01-05T08:03:54.080Z,37.47
2023-01-05T08:06:21.485Z,31.88
2023-01-05T08:08:48.342Z,34.33
2023-01-05T08:11:17.033Z,44.08
2023-01-05T08:14:00.428Z,34.42
2023-01-05T08:16:29.164Z,34.58
2023-01-05T08:18:57.144Z,39.03
2023-01-05T08:21:23.839Z,34.00
2023-01-05T08:23:50.717Z,42.28
2023-01-05T08:26:19.713Z,39.78
2023-01-05T08:28:46.741Z,37.70
2023-01-05T08:31:26.310Z,37.20
2023-01-05T08:34:00.102Z,41.20
2023-01-05T08:36:27.706Z,36.83
2023-01-05T08:38:55.096Z,43.80
2023-01-05T08:41:24.429Z,33.45
2023-01-05T08:43:59.617Z,51.72
2023-01-05T08:46:28.714Z,47.85
2023-01-05T08:48:58.012Z,45.80
2023-01-05T08:51:24.940Z,36.42
2023-01-05T08:53:52.121Z,44.60
2023-01-05T08:56:19.628Z,35.47
2023-01-05T08:58:46.502Z,30.80
2023-01-05T09:01:18.512Z,46.40
2023-01-05T09:03:45.269Z,34.97
2023-01-05T09:06:13.099Z,54.95
2023-01-05T09:08:41.720Z,37.72
2023-01-05T09:11:10.097Z,37.00
2023-01-05T09:13:37.408Z,38.05
2023-01-05T09:16:09.483Z,31.42
2023-01-05T09:18:37.267Z,47.70
2023-01-05T09:21:05.949Z,31.48
2023-01-05T09:23:33.253Z,32.70
2023-01-05T09:26:00.264Z,45.50
2023-01-05T09:28:26.972Z,38.58
2023-01-05T09:30:53.637Z,41.97
2023-01-05T09:33:20.304Z,39.20
2023-01-05T09:35:54.827Z,42.78
2023-01-05T09:38:21.788Z,49.15
2023-01-05T09:40:50.980Z,31.20
2023-01-05T09:43:38.901Z,37.60
2023-01-05T09:46:13.477Z,44.88
2023-01-05T09:48:44.048Z,44.22
2023-01-05T09:51:10.918Z,36.40
2023-01-05T09:53:39.961Z,35.45
2023-01-05T09:56:42.053Z,42.83
2023-01-05T09:59:07.764Z,43.03
2023-01-05T10:01:37.036Z,37.70
2023-01-05T10:04:31.445Z,32.17
2023-01-05T10:07:15.207Z,39.22
2023-01-05T10:09:42.031Z,35.50
2023-01-05T10:12:27.372Z,35.78
2023-01-05T10:15:16.259Z,41.22
2023-01-05T10:17:44.777Z,34.17
2023-01-05T10:20:46.548Z,32.90
2023-01-05T10:23:40.814Z,36.03
2023-01-05T10:26:19.864Z,37.33
2023-01-05T10:29:05.787Z,40.50
2023-01-05T10:31:59.093Z,48.45
2023-01-05T10:34:34.600Z,51.10
2023-01-05T10:37:31.092Z,43.88
2023-01-05T10:40:21.444Z,35.53
2023-01-05T10:43:12.149Z,35.72
2023-01-05T10:46:03.182Z,41.22
2023-01-05T10:48:33.313Z,42.85
2023-01-05T10:51:01.068Z,33.72
2023-01-05T10:53:29.066Z,43.28
2023-01-05T10:56:13.753Z,36.90
2023-01-05T10:58:44.010Z,38.10
2023-01-05T11:01:19.648Z,38.55
2023-01-05T11:07:52.962Z,45.65
2023-01-05T11:10:55.422Z,41.03
2023-01-05T11:13:27.765Z,35.13
2023-01-05T11:15:57.132Z,37.40
2023-01-05T11:18:44.506Z,37.65
2023-01-05T11:21:13.193Z,43.58
2023-01-05T11:23:51.632Z,38.25
2023-01-05T11:26:18.168Z,33.45
2023-01-05T11:29:13.400Z,39.03
2023-01-05T11:31:48.184Z,44.88
2023-01-05T11:34:38.842Z,35.50
2023-01-05T11:37:13.845Z,36.47
2023-01-05T11:39:50.968Z,40.10
2023-01-05T11:42:24.893Z,40.15
2023-01-05T11:44:56.785Z,41.40
2023-01-05T11:47:27.995Z,34.30
2023-01-05T11:50:14.890Z,33.80
2023-01-05T11:52:48.566Z,36.58
2023-01-05T11:55:30.761Z,33.40
2023-01-05T11:58:26.898Z,28.17
2023-01-05T12:01:10.088Z,30.08
2023-01-05T12:03:59.073Z,29.35
2023-01-05T12:06:55.881Z,36.13
2023-01-05T12:09:35.084Z,39.53
2023-01-05T12:12:04.576Z,37.42
2023-01-05T12:14:49.990Z,35.53
2023-01-05T12:17:38.585Z,32.13
2023-01-05T12:20:39.601Z,38.90
2023-01-05T12:23:52.641Z,25.80
2023-01-05T12:26:34.179Z,34.08
2023-01-05T12:35:47.145Z,32.92
2023-01-05T12:38:28.467Z,31.95
2023-01-05T12:41:28.878Z,36.25
2023-01-05T12:44:38.338Z,35.60
2023-01-05T12:47:08.077Z,39.20
2023-01-05T12:49:51.266Z,39.70
2023-01-05T12:52:39.242Z,28.73
2023-01-05T12:55:15.597Z,31.92
2023-01-05T12:57:54.139Z,27.17
2023-01-05T13:00:21.813Z,34.35
2023-01-05T13:03:11.340Z,30.45
2023-01-05T13:05:59.770Z,32.33
2023-01-05T13:08:29.787Z,27.92
2023-01-05T13:11:22.136Z,25.13
2023-01-05T13:13:58.714Z,32.67
2023-01-05T13:16:49.332Z,35.60
2023-01-05T13:19:40.260Z,33.28
2023-01-05T13:22:23.270Z,28.40
2023-01-05T13:25:18.408Z,23.92
2023-01-05T13:27:47.444Z,23.05
2023-01-05T13:30:31.086Z,28.70
2023-01-05T13:33:32.036Z,28.50
2023-01-05T13:36:11.159Z,30.48
2023-01-05T13:47:30.858Z,27.15
2023-01-05T13:54:49.496Z,26.27
2023-01-05T13:57:24.632Z,24.38
2023-01-05T14:12:49.613Z,26.67
2023-01-05T14:15:42.180Z,27.25
2023-01-05T14:18:13.643Z,28.70
2023-01-05T14:20:49.116Z,32.20
2023-01-05T14:23:25.405Z,34.00
2023-01-05T14:26:04.101Z,23.48
2023-01-05T14:28:30.798Z,30.83
2023-01-05T14:31:16.608Z,29.65
2023-01-05T14:33:49.739Z,35.72
2023-01-05T14:36:34.438Z,28.80
2023-01-05T14:39:26.565Z,34.75
2023-01-05T14:42:05.024Z,39.75
2023-01-05T14:44:34.237Z,35.85
2023-01-05T14:47:01.866Z,34.60
2023-01-05T14:49:52.310Z,36.38
2023-01-05T14:52:40.249Z,30.95
2023-01-05T14:55:37.693Z,34.20
2023-01-05T14:58:15.275Z,40.97
2023-01-05T15:00:58.189Z,32.88
2023-01-05T15:03:45.991Z,27.23
2023-01-05T15:06:21.862Z,35.13
2023-01-05T15:09:16.142Z,31.23
2023-01-05T15:11:54.683Z,23.85
2023-01-05T15:14:42.508Z,35.20
2023-01-05T15:17:27.824Z,42.30
2023-01-05T15:20:15.593Z,41.13
2023-01-05T15:23:10.020Z,28.63
2023-01-05T15:26:02.551Z,43.15
2023-01-05T15:31:50.058Z,42.38
2023-01-05T15:34:41.801Z,43.78
2023-01-05T15:37:21.487Z,41.28
2023-01-05T15:39:51.401Z,41.80
2023-01-05T15:42:27.865Z,37.63
2023-01-05T15:44:55.692Z,38.53
2023-01-05T15:47:26.678Z,31.58
2023-01-05T15:49:59.699Z,38.08
2023-01-05T15:52:29.689Z,37.90
2023-01-05T15:55:02.354Z,37.75
2023-01-05T15:57:29.143Z,29.80
2023-01-05T15:59:56.859Z,36.08
2023-01-05T16:02:26.516Z,33.95
2023-01-05T16:05:14.753Z,36.85
2023-01-05T16:08:06.409Z,38.20
2023-01-05T16:10:44.746Z,33.40
2023-01-05T16:13:18.856Z,41.53
2023-01-05T16:15:50.121Z,36.35
2023-01-05T16:18:23.456Z,37.17
2023-01-05T16:20:52.790Z,31.73
2023-01-05T16:23:30.663Z,32.38
2023-01-05T16:25:59.203Z,36.90
2023-01-05T16:28:26.514Z,29.88
2023-01-05T16:30:54.857Z,41.67
2023-01-05T16:33:39.172Z,28.00
2023-01-05T16:36:07.675Z,31.65
2023-01-05T16:38:34.827Z,36.53
2023-01-05T16:41:08.954Z,33.85
2023-01-05T16:43:50.633Z,33.03
2023-01-05T16:46:20.157Z,35.22
2023-01-05T16:48:53.541Z,48.22
2023-01-05T16:51:22.842Z,41.60
2023-01-05T16:53:58.459Z,42.15
2023-01-05T16:56:34.848Z,30.92
2023-01-05T16:59:31.606Z,45.05
2023-01-05T17:01:58.806Z,44.55
2023-01-05T17:04:25.639Z,44.70
2023-01-05T17:06:53.131Z,46.45
2023-01-05T17:09:22.832Z,44.95
2023-01-05T17:11:49.619Z,58.42
2023-01-05T17:14:18.143Z,44.03
2023-01-05T17:16:44.842Z,46.88
2023-01-05T17:19:16.659Z,33.47
2023-01-05T17:21:49.213Z,36.05
2023-01-05T17:24:15.952Z,34.97
2023-01-05T17:26:45.193Z,44.53
2023-01-05T17:29:27.801Z,27.75
2023-01-05T17:31:55.345Z,39.75
2023-01-05T17:34:22.892Z,38.67
2023-01-05T17:36:53.110Z,33.67
2023-01-05T17:39:21.393Z,31.70
2023-01-05T17:41:48.383Z,29.58
2023-01-05T17:44:15.587Z,34.53
2023-01-05T17:46:44.526Z,37.30
2023-01-05T17:49:20.401Z,29.15
2023-01-05T17:51:47.255Z,33.47
2023-01-05T17:54:13.948Z,27.35
2023-01-05T17:56:40.580Z,36.92
2023-01-05T17:59:07.502Z,26.10
2023-01-05T18:01:34.355Z,27.45
2023-01-05T18:04:01.323Z,32.15
2023-01-05T18:06:28.460Z,32.03
2023-01-05T18:08:55.326Z,24.33
2023-01-05T18:11:22.254Z,26.27
2023-01-05T18:13:49.131Z,32.42
2023-01-05T18:16:16.259Z,25.08
2023-01-05T18:18:43.071Z,30.17
2023-01-05T18:21:09.849Z,27.05
2023-01-05T18:23:36.628Z,27.17
2023-01-05T18:26:09.221Z,26.40
2023-01-05T18:28:37.145Z,26.25
2023-01-05T18:31:14.449Z,25.77
2023-01-05T18:33:41.457Z,20.88
2023-01-05T18:36:10.334Z,25.25
2023-01-05T18:38:37.520Z,23.60
2023-01-05T18:41:04.981Z,28.65
2023-01-05T18:43:32.637Z,22.42
2023-01-05T18:45:59.771Z,24.70
2023-01-05T18:48:26.593Z,29.65
2023-01-05T18:50:53.380Z,27.48
2023-01-05T18:53:22.041Z,32.92
2023-01-05T18:55:49.302Z,31.20
2023-01-05T18:58:15.988Z,28.80
2023-01-05T19:00:44.503Z,24.42
2023-01-05T19:03:11.499Z,28.80
2023-01-05T19:05:40.783Z,30.08
2023-01-05T19:08:09.399Z,24.63
2023-01-05T19:10:36.891Z,24.23
2023-01-05T19:13:04.140Z,30.67
2023-01-05T19:15:33.449Z,23.60
2023-01-05T19:18:00.185Z,26.73
2023-01-05T19:20:27.019Z,28.27
2023-01-05T19:22:53.675Z,23.70
2023-01-05T19:25:20.428Z,25.42
2023-01-05T19:27:47.234Z,23.67
2023-01-05T19:30:16.205Z,25.67
2023-01-05T19:32:43.098Z,21.08
2023-01-05T19:35:09.881Z,26.65
2023-01-05T19:37:39.046Z,26.30
2023-01-05T19:40:06.420Z,31.48
2023-01-05T19:42:33.137Z,31.77
2023-01-05T19:45:00.093Z,38.53
2023-01-05T19:47:26.975Z,43.38
2023-01-05T19:49:53.682Z,33.42
2023-01-05T19:52:20.616Z,38.03
2023-01-05T19:54:47.687Z,26.27
2023-01-05T19:57:14.417Z,25.95
2023-01-05T19:59:41.077Z,28.85
2023-01-05T20:02:08.176Z,29.92
2023-01-05T20:04:35.216Z,28.23
2023-01-05T20:07:03.909Z,28.02
2023-01-05T20:09:31.177Z,29.58
2023-01-05T20:12:09.105Z,27.65
2023-01-05T20:14:39.716Z,25.77
2023-01-05T20:17:09.265Z,29.10
2023-01-05T20:19:37.469Z,28.45
2023-01-05T20:22:05.728Z,30.38
2023-01-05T20:24:36.332Z,30.98
2023-01-05T20:27:08.184Z,36.80
2023-01-05T20:29:35.695Z,31.58
2023-01-05T20:32:09.198Z,32.63
2023-01-05T20:34:38.366Z,32.78
2023-01-05T20:37:07.861Z,38.72
2023-01-05T20:39:35.844Z,38.05
2023-01-05T20:42:05.938Z,38.35
2023-01-05T20:44:35.669Z,34.15
2023-01-05T20:47:03.639Z,33.85
2023-01-05T20:49:31.114Z,29.35
2023-01-05T20:51:58.345Z,26.27
2023-01-05T20:54:26.058Z,25.40
2023-01-05T20:56:52.948Z,24.13
2023-01-05T20:59:30.457Z,23.42
2023-01-05T21:01:58.196Z,23.85
2023-01-05T21:04:26.659Z,22.83
2023-01-05T21:06:59.313Z,22.92
2023-01-05T21:09:29.025Z,20.95
2023-01-05T21:11:55.796Z,23.33
2023-01-05T21:14:22.584Z,22.60
2023-01-05T21:16:51.588Z,21.13
2023-01-05T21:19:21.941Z,19.73
2023-01-05T21:21:54.819Z,22.40
2023-01-05T21:24:22.526Z,17.35
2023-01-05T21:26:49.831Z,16.10
2023-01-05T21:29:19.240Z,13.85
2023-01-05T21:31:46.428Z,15.32
2023-01-05T21:34:13.904Z,15.27
2023-01-05T21:36:44.842Z,12.77
2023-01-05T21:39:17.361Z,13.47
2023-01-05T21:42:02.944Z,13.27
2023-01-05T21:44:29.889Z,14.30
2023-01-05T21:46:56.669Z,14.50
2023-01-05T21:49:23.390Z,13.75
2023-01-05T21:52:08.922Z,14.88
2023-01-05T21:54:54.508Z,12.18
2023-01-05T21:57:21.623Z,15.93
2023-01-05T21:59:48.383Z,13.57
2023-01-05T22:02:15.575Z,13.50
2023-01-05T22:04:43.108Z,12.10
2023-01-05T22:07:10.406Z,16.23
2023-01-05T22:09:37.868Z,10.90
2023-01-05T22:12:08.966Z,10.07
2023-01-05T22:14:39.032Z,13.68
2023-01-05T22:17:07.375Z,10.05
2023-01-05T22:19:34.743Z,12.57
2023-01-05T22:22:01.467Z,9.40
2023-01-05T22:24:28.273Z,8.38
2023-01-05T22:26:55.000Z,9.25
2023-01-05T22:29:21.911Z,9.38
2023-01-05T22:31:50.716Z,11.82
2023-01-05T22:34:17.688Z,9.50
2023-01-05T22:36:44.694Z,12.75
2023-01-05T22:39:12.234Z,8.95
2023-01-05T22:41:39.044Z,8.85
2023-01-05T22:44:06.098Z,9.55
2023-01-05T22:46:33.232Z,10.57
2023-01-05T22:49:00.275Z,11.63
2023-01-05T22:51:30.101Z,8.48
2023-01-05T22:53:58.172Z,11.05
2023-01-05T22:56:26.608Z,11.13
2023-01-05T22:58:55.616Z,9.50
2023-01-05T23:01:23.550Z,8.35
2023-01-05T23:03:51.425Z,10.27
2023-01-05T23:06:18.815Z,9.95
2023-01-05T23:08:47.026Z,13.90
2023-01-05T23:11:16.248Z,11.32
2023-01-05T23:13:43.718Z,8.65
2023-01-05T23:16:11.297Z,9.52
2023-01-05T23:18:39.149Z,11.38
2023-01-05T23:21:10.978Z,10.75
2023-01-05T23:23:38.643Z,11.77
2023-01-05T23:26:06.955Z,11.73
2023-01-05T23:28:34.530Z,11.80
2023-01-05T23:31:01.540Z,8.30
2023-01-05T23:33:31.645Z,9.52
2023-01-05T23:35:58.364Z,7.43
2023-01-05T23:38:26.198Z,10.77
2023-01-05T23:40:54.547Z,10.38
2023-01-05T23:43:26.338Z,11.45
2023-01-05T23:46:00.171Z,9.30
2023-01-05T23:48:27.522Z,9.50
2023-01-05T23:50:55.337Z,9.88
2023-01-05T23:53:22.752Z,9.75
2023-01-05T23:55:49.448Z,7.68
2023-01-05T23:58:16.378Z,8.90
